createdAt,value
2018-04-08T00:00:11.681Z,64.47
2018-04-08T00:00:52.145Z,64.43
2018-04-08T00:01:32.559Z,64.34
2018-04-08T00:02:12.977Z,64.47
2018-04-08T00:02:53.367Z,64.56
2018-04-08T00:05:20.954Z,64.95
2018-04-08T00:05:59.562Z,64.53
2018-04-08T00:06:39.963Z,64.37
2018-04-08T00:07:20.386Z,65.01
2018-04-08T00:08:00.789Z,65.01
2018-04-08T00:08:41.182Z,64.62
2018-04-08T00:09:21.715Z,64.91
2018-04-08T00:10:02.091Z,64.72
2018-04-08T00:10:42.592Z,64.91
2018-04-08T00:11:22.958Z,65.11
2018-04-08T00:12:03.326Z,64.91
2018-04-08T00:12:43.780Z,65.48
2018-04-08T00:13:24.182Z,65.11
2018-04-08T00:14:04.588Z,65.39
2018-04-08T00:14:44.949Z,65.77
2018-04-08T00:15:25.347Z,65.58
2018-04-08T00:16:05.754Z,65.58
2018-04-08T00:16:46.153Z,65.68
2018-04-08T00:17:26.585Z,65.3
2018-04-08T00:21:29.560Z,65.2
2018-04-08T00:24:19.246Z,65.48
2018-04-08T00:25:04.652Z,65.39
2018-04-08T00:25:45.076Z,65.39
2018-04-08T00:26:25.505Z,65.39
2018-04-08T00:27:05.937Z,65.3
2018-04-08T00:27:46.384Z,65.3
2018-04-08T00:28:26.786Z,65.11
2018-04-08T00:29:07.142Z,65.11
2018-04-08T00:29:47.634Z,65.3
2018-04-08T00:30:28.017Z,65.39
2018-04-08T00:31:08.371Z,65.11
2018-04-08T00:31:48.830Z,64.91
2018-04-08T00:32:29.192Z,65.01
2018-04-08T00:33:09.715Z,65.01
2018-04-08T00:33:50.072Z,64.91
2018-04-08T00:34:30.412Z,64.82
2018-04-08T00:35:10.844Z,64.91
2018-04-08T00:37:35.223Z,64.82
2018-04-08T00:39:33.921Z,64.25
2018-04-08T00:41:08.485Z,64.34
2018-04-08T00:41:48.911Z,64.53
2018-04-08T00:42:29.299Z,65.11
2018-04-08T00:43:09.678Z,64.91
2018-04-08T00:43:50.135Z,64.82
2018-04-08T00:44:30.502Z,64.82
2018-04-08T00:45:10.909Z,64.82
2018-04-08T00:45:51.334Z,65.01
2018-04-08T00:46:31.691Z,64.72
2018-04-08T00:47:12.100Z,65.01
2018-04-08T00:47:52.496Z,64.82
2018-04-08T00:48:32.918Z,65.01
2018-04-08T00:49:13.330Z,64.82
2018-04-08T00:49:53.719Z,65.01
2018-04-08T00:50:34.128Z,64.91
2018-04-08T00:51:14.544Z,64.91
2018-04-08T00:51:54.956Z,65.01
2018-04-08T00:52:35.370Z,65.11
2018-04-08T00:53:15.754Z,65.11
2018-04-08T00:53:56.192Z,65.01
2018-04-08T00:54:36.565Z,64.91
2018-04-08T00:55:17.001Z,65.11
2018-04-08T00:55:57.407Z,65.3
2018-04-08T00:56:37.819Z,65.58
2018-04-08T00:57:18.268Z,65.39
2018-04-08T00:57:58.635Z,65.2
2018-04-08T00:58:39.080Z,65.3
2018-04-08T01:00:58.591Z,65.84
2018-04-08T01:02:57.049Z,66.13
2018-04-08T01:04:54.222Z,66.22
2018-04-08T01:05:32.333Z,66.41
2018-04-08T01:07:33.462Z,66.31
2018-04-08T01:08:14.675Z,66.31
2018-04-08T01:08:55.096Z,66.22
2018-04-08T01:09:35.528Z,66.5
2018-04-08T01:10:15.950Z,66.31
2018-04-08T01:10:56.356Z,66.13
2018-04-08T01:11:36.770Z,66.06
2018-04-08T01:12:17.195Z,65.93
2018-04-08T01:12:57.660Z,65.93
2018-04-08T01:13:38.076Z,65.64
2018-04-08T01:14:18.492Z,65.68
2018-04-08T01:14:58.884Z,65.68
2018-04-08T01:15:39.267Z,65.68
2018-04-08T01:16:19.659Z,65.68
2018-04-08T01:17:00.061Z,65.97
2018-04-08T01:17:40.469Z,65.87
2018-04-08T01:18:20.911Z,66.06
2018-04-08T01:19:01.314Z,66.06
2018-04-08T01:19:41.739Z,65.97
2018-04-08T01:20:22.189Z,65.77
2018-04-08T01:21:02.521Z,65.77
2018-04-08T01:21:42.931Z,65.87
2018-04-08T01:22:23.328Z,65.87
2018-04-08T01:23:03.736Z,66.06
2018-04-08T01:23:44.163Z,66.16
2018-04-08T01:24:24.601Z,66.25
2018-04-08T01:25:05.044Z,66.35
2018-04-08T01:25:45.440Z,66.89
2018-04-08T01:26:25.865Z,66.79
2018-04-08T01:27:06.303Z,67.08
2018-04-08T01:27:46.771Z,67.27
2018-04-08T01:28:27.147Z,67.18
2018-04-08T01:29:07.575Z,67.27
2018-04-08T01:29:47.943Z,67.94
2018-04-08T01:30:28.355Z,67.75
2018-04-08T01:31:08.784Z,67.65
2018-04-08T01:31:49.205Z,67.55
2018-04-08T01:32:29.645Z,68.32
2018-04-08T01:33:10.060Z,68.13
2018-04-08T01:33:50.487Z,68.32
2018-04-08T01:34:30.897Z,68.23
2018-04-08T01:35:11.310Z,68.23
2018-04-08T01:35:51.751Z,68.32
2018-04-08T01:36:32.145Z,68
2018-04-08T01:37:12.561Z,68.13
2018-04-08T01:37:52.981Z,68.04
2018-04-08T01:38:33.422Z,68.48
2018-04-08T01:39:13.863Z,68.76
2018-04-08T01:39:54.296Z,68.86
2018-04-08T01:40:34.734Z,69.24
2018-04-08T01:41:15.156Z,69.43
2018-04-08T01:41:55.582Z,69.72
2018-04-08T01:42:36.044Z,69.34
2018-04-08T01:43:16.417Z,69.53
2018-04-08T01:43:56.852Z,69.53
2018-04-08T01:44:37.270Z,69.34
2018-04-08T01:45:17.704Z,69.43
2018-04-08T01:45:58.112Z,69.53
2018-04-08T01:46:38.544Z,69.62
2018-04-08T01:47:18.961Z,69.62
2018-04-08T01:47:59.392Z,70.01
2018-04-08T01:48:39.815Z,69.82
2018-04-08T01:49:20.200Z,69.34
2018-04-08T01:50:00.603Z,69.43
2018-04-08T01:50:41.014Z,69.91
2018-04-08T01:51:21.447Z,69.91
2018-04-08T01:52:01.893Z,69.82
2018-04-08T01:52:42.323Z,69.72
2018-04-08T01:53:22.753Z,69.62
2018-04-08T01:54:03.133Z,69.72
2018-04-08T01:56:22.124Z,69.82
2018-04-08T01:57:02.630Z,69.53
2018-04-08T01:57:43.044Z,69.62
2018-04-08T01:58:23.436Z,69.53
2018-04-08T01:59:03.873Z,69.43
2018-04-08T01:59:44.255Z,69.62
2018-04-08T02:00:24.661Z,69.62
2018-04-08T02:01:05.056Z,69.62
2018-04-08T02:04:09.289Z,69.53
2018-04-08T02:04:49.666Z,69.62
2018-04-08T02:05:30.055Z,69.34
2018-04-08T02:06:10.467Z,69.34
2018-04-08T02:06:50.858Z,69.53
2018-04-08T02:07:31.278Z,69.62
2018-04-08T02:08:11.706Z,68.76
2018-04-08T02:08:52.107Z,69.24
2018-04-08T02:09:32.522Z,68.96
2018-04-08T02:10:12.901Z,69.05
2018-04-08T02:10:53.322Z,68.86
2018-04-08T02:11:33.794Z,69.62
2018-04-08T02:12:14.141Z,69.62
2018-04-08T02:12:54.568Z,69.43
2018-04-08T02:13:34.943Z,69.62
2018-04-08T02:14:15.420Z,69.62
2018-04-08T02:14:55.800Z,69.53
2018-04-08T02:15:36.182Z,69.43
2018-04-08T02:16:16.666Z,69.53
2018-04-08T02:16:57.157Z,69.24
2018-04-08T02:17:37.498Z,69.34
2018-04-08T02:18:18.756Z,69.62
2018-04-08T02:18:59.233Z,69.53
2018-04-08T02:19:39.659Z,69.72
2018-04-08T02:20:20.085Z,69.72
2018-04-08T02:21:00.530Z,69.62
2018-04-08T02:21:41.045Z,69.62
2018-04-08T02:22:21.429Z,69.82
2018-04-08T02:26:21.166Z,69.05
2018-04-08T02:33:17.517Z,68.19
2018-04-08T02:33:55.654Z,68.29
2018-04-08T02:34:36.108Z,68.1
2018-04-08T02:35:16.518Z,68.29
2018-04-08T02:35:56.906Z,68
2018-04-08T02:36:37.290Z,67.94
2018-04-08T02:37:17.695Z,68.23
2018-04-08T02:37:58.111Z,68.13
2018-04-08T02:38:38.527Z,68.23
2018-04-08T02:39:18.901Z,68.04
2018-04-08T02:39:59.808Z,68.29
2018-04-08T02:40:39.846Z,67.81
2018-04-08T02:41:20.258Z,68.19
2018-04-08T02:43:44.499Z,68.23
2018-04-08T02:44:33.426Z,68.23
2018-04-08T02:45:13.164Z,68.04
2018-04-08T02:45:53.259Z,68.57
2018-04-08T02:46:33.667Z,68.96
2018-04-08T02:47:14.039Z,68.76
2018-04-08T02:47:54.427Z,68.96
2018-04-08T02:48:34.856Z,68.48
2018-04-08T02:49:15.253Z,68.57
2018-04-08T02:49:55.669Z,68
2018-04-08T02:50:36.102Z,68.67
2018-04-08T02:51:16.507Z,68.1
2018-04-08T02:51:56.952Z,68.38
2018-04-08T02:52:37.324Z,68.96
2018-04-08T02:53:17.700Z,68.57
2018-04-08T02:53:58.772Z,68.57
2018-04-08T02:54:39.183Z,68.57
2018-04-08T02:55:19.567Z,68.57
2018-04-08T02:56:00.052Z,68.48
2018-04-08T02:56:40.404Z,68.48
2018-04-08T02:57:20.789Z,68.57
2018-04-08T02:58:01.205Z,68.86
2018-04-08T02:58:41.678Z,68.57
2018-04-08T02:59:22.034Z,68.76
2018-04-08T03:00:02.456Z,68.38
2018-04-08T03:00:42.917Z,68.38
2018-04-08T03:01:23.276Z,68.1
2018-04-08T03:02:03.703Z,68.29
2018-04-08T03:02:44.128Z,68
2018-04-08T03:03:24.595Z,68.19
2018-04-08T03:04:05.872Z,68.19
2018-04-08T03:04:46.158Z,68.1
2018-04-08T03:05:26.624Z,68.1
2018-04-08T03:06:07.025Z,67.71
2018-04-08T03:06:47.444Z,67.62
2018-04-08T03:07:27.818Z,67.71
2018-04-08T03:08:08.450Z,67.46
2018-04-08T03:08:48.753Z,67.14
2018-04-08T03:09:29.140Z,67.14
2018-04-08T03:10:09.549Z,67.24
2018-04-08T03:10:49.954Z,67.24
2018-04-08T03:11:30.371Z,67.33
2018-04-08T03:12:10.909Z,67.43
2018-04-08T03:12:51.316Z,66.76
2018-04-08T03:13:31.728Z,67.14
2018-04-08T03:14:12.168Z,66.99
2018-04-08T03:14:52.498Z,66.85
2018-04-08T03:15:32.906Z,66.95
2018-04-08T03:16:13.300Z,66.76
2018-04-08T03:16:53.695Z,67.05
2018-04-08T03:17:34.128Z,67.05
2018-04-08T03:18:14.510Z,66.85
2018-04-08T03:18:54.946Z,66.99
2018-04-08T03:19:35.370Z,66.85
2018-04-08T03:20:15.844Z,66.66
2018-04-08T03:20:56.197Z,66.79
2018-04-08T03:21:36.596Z,66.99
2018-04-08T03:22:17.005Z,66.28
2018-04-08T03:22:57.420Z,66.41
2018-04-08T03:23:37.804Z,66.41
2018-04-08T03:24:18.218Z,66.28
2018-04-08T03:24:58.610Z,66.31
2018-04-08T03:25:39.021Z,66.31
2018-04-08T03:26:19.440Z,66.31
2018-04-08T03:26:59.833Z,66.31
2018-04-08T03:29:15.990Z,66.38
2018-04-08T03:29:57.347Z,66.19
2018-04-08T03:30:37.760Z,66.47
2018-04-08T03:31:18.188Z,66.28
2018-04-08T03:31:58.610Z,66.56
2018-04-08T03:32:39.014Z,66.31
2018-04-08T03:33:19.454Z,66.19
2018-04-08T03:33:59.848Z,66
2018-04-08T03:34:40.276Z,66.19
2018-04-08T03:35:20.700Z,66.09
2018-04-08T03:36:01.144Z,66.22
2018-04-08T03:36:41.574Z,67.18
2018-04-08T03:37:21.936Z,66.56
2018-04-08T03:38:02.339Z,66.31
2018-04-08T03:38:42.791Z,66.47
2018-04-08T03:39:23.145Z,65.9
2018-04-08T03:40:03.576Z,66
2018-04-08T03:40:43.945Z,66.09
2018-04-08T03:41:24.364Z,65.9
2018-04-08T03:43:13.738Z,66.09
2018-04-08T03:43:52.536Z,66.31
2018-04-08T03:44:32.960Z,66.31
2018-04-08T03:45:13.373Z,66.31
2018-04-08T03:45:53.804Z,66.5
2018-04-08T03:46:34.215Z,66.38
2018-04-08T03:47:14.649Z,66.6
2018-04-08T03:47:55.107Z,66.31
2018-04-08T03:48:35.478Z,66
2018-04-08T03:49:15.915Z,66.28
2018-04-08T03:49:56.306Z,66.31
2018-04-08T03:50:36.714Z,66.13
2018-04-08T03:51:17.127Z,66.41
2018-04-08T03:51:57.551Z,65.74
2018-04-08T03:52:37.989Z,65.84
2018-04-08T03:53:18.375Z,65.93
2018-04-08T03:53:58.792Z,66.13
2018-04-08T03:54:39.231Z,65.84
2018-04-08T03:55:19.610Z,66.13
2018-04-08T03:56:00.000Z,65.93
2018-04-08T03:56:40.424Z,65.93
2018-04-08T03:57:20.830Z,66.31
2018-04-08T03:58:01.258Z,66.41
2018-04-08T03:58:41.681Z,66.5
2018-04-08T03:59:22.124Z,66.5
2018-04-08T04:00:02.532Z,66.5
2018-04-08T04:00:42.956Z,66.31
2018-04-08T04:01:23.372Z,66.31
2018-04-08T04:41:20.369Z,72.48
2018-04-08T04:41:59.316Z,72.28
2018-04-08T04:42:39.743Z,72.86
2018-04-08T04:43:20.170Z,72.61
2018-04-08T04:44:00.616Z,72.57
2018-04-08T04:44:41.021Z,73.24
2018-04-08T04:45:21.435Z,73.24
2018-04-08T04:46:01.858Z,72.96
2018-04-08T04:46:42.276Z,72.86
2018-04-08T04:47:22.684Z,73.05
2018-04-08T04:48:03.087Z,73.14
2018-04-08T04:48:43.502Z,73.05
2018-04-08T04:49:23.896Z,73.24
2018-04-08T04:50:04.303Z,73.24
2018-04-08T04:50:44.701Z,73.18
2018-04-08T04:52:58.384Z,72.99
2018-04-08T04:53:38.407Z,72.61
2018-04-08T04:54:18.831Z,72.8
2018-04-08T04:54:59.262Z,72.13
2018-04-08T04:55:39.681Z,72.13
2018-04-08T04:56:20.104Z,71.37
2018-04-08T04:57:00.507Z,71.37
2018-04-08T04:57:40.927Z,71.75
2018-04-08T04:58:21.371Z,71.84
2018-04-08T04:59:01.730Z,71.66
2018-04-08T04:59:42.124Z,71.27
2018-04-08T05:00:22.552Z,71.37
2018-04-08T05:01:02.971Z,71.46
2018-04-08T05:01:43.428Z,71.46
2018-04-08T05:02:23.814Z,71.75
2018-04-08T05:03:04.236Z,71.66
2018-04-08T05:03:44.631Z,71.84
2018-04-08T05:04:25.018Z,70.98
2018-04-08T05:05:05.443Z,71.08
2018-04-08T05:05:45.884Z,71.18
2018-04-08T05:06:26.332Z,70.89
2018-04-08T05:07:06.727Z,70.89
2018-04-08T05:07:47.122Z,70.42
2018-04-08T05:09:46.157Z,69.68
2018-04-08T05:10:36.081Z,69.87
2018-04-08T05:11:17.886Z,69.68
2018-04-08T05:11:58.273Z,69.97
2018-04-08T05:12:38.749Z,69.4
2018-04-08T05:13:19.137Z,69.49
2018-04-08T05:13:59.535Z,69.68
2018-04-08T05:14:39.921Z,69.59
2018-04-08T05:15:20.332Z,69.11
2018-04-08T05:16:00.693Z,69.31
2018-04-08T05:16:41.134Z,69.11
2018-04-08T05:17:21.510Z,69.02
2018-04-08T05:18:01.888Z,69.4
2018-04-08T05:18:42.267Z,69.21
2018-04-08T05:19:22.682Z,69.02
2018-04-08T05:20:03.073Z,69.11
2018-04-08T05:20:43.458Z,69.21
2018-04-08T05:21:23.867Z,69.02
2018-04-08T05:22:04.283Z,68.92
2018-04-08T05:22:44.684Z,68.63
2018-04-08T05:23:25.092Z,68.54
2018-04-08T05:24:05.540Z,68.73
2018-04-08T05:24:45.926Z,68.1
2018-04-08T05:25:26.319Z,67.81
2018-04-08T05:26:06.762Z,67.91
2018-04-08T05:26:47.163Z,67.52
2018-04-08T05:27:27.629Z,67.71
2018-04-08T05:28:07.998Z,67.62
2018-04-08T05:28:48.405Z,67.43
2018-04-08T05:29:28.836Z,67.81
2018-04-08T05:30:09.225Z,67.33
2018-04-08T05:30:49.656Z,67.05
2018-04-08T05:31:30.048Z,67.05
2018-04-08T05:32:10.522Z,66.76
2018-04-08T05:32:50.906Z,66.76
2018-04-08T05:33:31.344Z,66.76
2018-04-08T05:34:11.701Z,66.56
2018-04-08T05:34:52.128Z,66.31
2018-04-08T05:35:32.562Z,65.71
2018-04-08T05:36:12.947Z,66.03
2018-04-08T05:38:29.411Z,65.45
2018-04-08T05:39:18.559Z,65.64
2018-04-08T05:39:57.550Z,65.07
2018-04-08T05:40:37.966Z,65.07
2018-04-08T05:41:18.396Z,64.78
2018-04-08T05:41:58.813Z,64.5
2018-04-08T05:42:39.233Z,64.88
2018-04-08T05:43:19.664Z,64.43
2018-04-08T05:44:00.073Z,64.62
2018-04-08T05:44:40.486Z,63.76
2018-04-08T05:45:20.906Z,63.96
2018-04-08T05:46:01.355Z,63.76
2018-04-08T05:46:41.726Z,63.48
2018-04-08T05:47:22.139Z,63.1
2018-04-08T05:48:02.565Z,63
2018-04-08T05:48:42.989Z,62.62
2018-04-08T05:49:23.409Z,62.55
2018-04-08T05:50:03.843Z,62.37
2018-04-08T05:50:44.278Z,61.79
2018-04-08T05:51:24.714Z,61.69
2018-04-08T05:52:05.159Z,60.83
2018-04-08T05:52:45.572Z,60.38
2018-04-08T05:53:25.989Z,60.38
2018-04-08T05:54:06.443Z,60.38
2018-04-08T05:54:46.822Z,60
2018-04-08T05:55:27.226Z,60.1
2018-04-08T05:56:07.664Z,59.43
2018-04-08T05:56:48.090Z,59.33
2018-04-08T05:57:28.491Z,59.52
2018-04-08T05:58:08.909Z,59.17
2018-04-08T05:58:49.344Z,58.59
2018-04-08T05:59:29.780Z,58.22
2018-04-08T06:00:10.187Z,58.31
2018-04-08T06:00:50.610Z,57.64
2018-04-08T06:01:31.050Z,57.64
2018-04-08T06:02:11.523Z,57.54
2018-04-08T06:02:51.890Z,57.64
2018-04-08T06:03:32.326Z,57.73
2018-04-08T06:04:12.739Z,57.83
2018-04-08T06:04:53.152Z,57.83
2018-04-08T06:05:33.558Z,57.83
2018-04-08T06:06:13.967Z,57.73
2018-04-08T06:06:54.396Z,57.73
2018-04-08T06:07:34.788Z,57.54
2018-04-08T06:08:15.218Z,57.67
2018-04-08T06:08:55.605Z,57.95
2018-04-08T06:09:36.039Z,57.95
2018-04-08T06:10:16.476Z,57.76
2018-04-08T06:10:56.875Z,57.09
2018-04-08T06:11:37.286Z,56.99
2018-04-08T06:12:17.704Z,56.99
2018-04-08T06:12:58.127Z,56.52
2018-04-08T06:13:38.544Z,56.93
2018-04-08T06:14:18.974Z,56.45
2018-04-08T06:14:59.402Z,56.45
2018-04-08T06:15:39.825Z,56.35
2018-04-08T06:16:20.238Z,56.16
2018-04-08T06:17:00.654Z,55.85
2018-04-08T06:17:41.117Z,56.04
2018-04-08T06:18:21.450Z,56.32
2018-04-08T06:19:01.884Z,56.16
2018-04-08T06:19:42.281Z,56.26
2018-04-08T06:20:22.689Z,56.45
2018-04-08T06:21:03.143Z,56.35
2018-04-08T06:21:43.483Z,55.68
2018-04-08T06:22:23.877Z,55.4
2018-04-08T06:23:04.286Z,55.58
2018-04-08T06:23:44.697Z,55.78
2018-04-08T06:24:25.090Z,55.97
2018-04-08T06:25:05.505Z,56.23
2018-04-08T06:25:45.917Z,56.16
2018-04-08T06:26:26.327Z,56.32
2018-04-08T06:27:06.744Z,56.35
2018-04-08T06:27:47.150Z,56.23
2018-04-08T06:28:27.584Z,56.83
2018-04-08T06:29:07.988Z,56.16
2018-04-08T06:29:48.401Z,56.35
2018-04-08T06:30:28.799Z,55.97
2018-04-08T06:31:09.233Z,55.58
2018-04-08T06:31:49.635Z,55.49
2018-04-08T06:32:30.031Z,55.58
2018-04-08T06:33:10.447Z,55.3
2018-04-08T06:33:50.864Z,54.94
2018-04-08T06:34:31.229Z,54.66
2018-04-08T06:35:11.640Z,54.37
2018-04-08T06:35:52.111Z,53.99
2018-04-08T06:36:32.425Z,53.99
2018-04-08T06:37:12.887Z,53.41
2018-04-08T06:37:53.260Z,53.7
2018-04-08T06:38:33.668Z,53.41
2018-04-08T06:39:14.116Z,53.79
2018-04-08T06:39:54.489Z,53.7
2018-04-08T06:40:34.893Z,53.41
2018-04-08T06:41:15.291Z,53.89
2018-04-08T06:41:55.706Z,53.5
2018-04-08T06:42:36.109Z,53.41
2018-04-08T06:43:16.537Z,53.12
2018-04-08T06:43:56.959Z,52.95
2018-04-08T06:44:37.400Z,52.57
2018-04-08T06:45:17.794Z,52.38
2018-04-08T06:45:58.213Z,52.09
2018-04-08T06:46:38.616Z,51.81
2018-04-08T06:47:19.069Z,52.09
2018-04-08T06:47:59.477Z,51.23
2018-04-08T06:48:39.863Z,51.16
2018-04-08T06:49:20.302Z,50.78
2018-04-08T06:50:00.685Z,50.49
2018-04-08T06:50:41.074Z,50.39
2018-04-08T06:51:21.480Z,49.93
2018-04-08T06:52:01.890Z,50.13
2018-04-08T06:52:42.308Z,49.91
2018-04-08T06:53:22.732Z,50.13
2018-04-08T06:54:03.152Z,49.91
2018-04-08T06:54:43.547Z,50.01
2018-04-08T06:55:23.964Z,50.39
2018-04-08T06:56:04.348Z,50.78
2018-04-08T06:56:44.803Z,50.94
2018-04-08T06:57:25.201Z,51.23
2018-04-08T06:59:44.272Z,51.23
2018-04-08T07:00:22.399Z,51.42
2018-04-08T07:01:03.397Z,51.71
2018-04-08T07:01:43.802Z,51.78
2018-04-08T07:02:25.099Z,51.97
2018-04-08T07:03:05.533Z,52.07
2018-04-08T07:03:45.952Z,52.36
2018-04-08T07:04:26.365Z,52.36
2018-04-08T07:05:06.787Z,52.64
2018-04-08T07:05:47.170Z,52.26
2018-04-08T07:07:40.100Z,51.97
2018-04-08T07:08:18.654Z,52.16
2018-04-08T07:08:59.099Z,52.55
2018-04-08T07:09:39.455Z,52.26
2018-04-08T07:10:19.884Z,52.36
2018-04-08T07:11:00.329Z,52.48
2018-04-08T07:11:40.709Z,52.38
2018-04-08T07:12:21.091Z,52
2018-04-08T07:13:01.495Z,51.9
2018-04-08T07:13:41.927Z,52.09
2018-04-08T07:14:22.722Z,51.9
2018-04-08T07:15:02.947Z,52.48
2018-04-08T07:15:43.384Z,52
2018-04-08T07:16:23.815Z,51.61
2018-04-08T07:17:04.246Z,51.9
2018-04-08T07:17:44.612Z,52
2018-04-08T07:18:25.086Z,51.32
2018-04-08T07:19:05.415Z,51.23
2018-04-08T07:19:45.842Z,51.14
2018-04-08T07:20:26.236Z,51.42
2018-04-08T07:21:06.698Z,51.42
2018-04-08T07:21:47.061Z,51.23
2018-04-08T07:22:27.459Z,52
2018-04-08T07:23:07.889Z,52.38
2018-04-08T07:23:48.309Z,52
2018-04-08T07:24:28.727Z,52.38
2018-04-08T07:25:09.192Z,52.28
2018-04-08T07:25:49.567Z,52.76
2018-04-08T07:26:30.002Z,52.38
2018-04-08T07:27:10.423Z,52.28
2018-04-08T07:27:50.817Z,52.48
2018-04-08T07:28:31.247Z,52.28
2018-04-08T07:30:30.919Z,53.15
2018-04-08T07:31:09.884Z,53.44
2018-04-08T07:31:50.321Z,53.17
2018-04-08T07:32:30.696Z,54.3
2018-04-08T07:33:11.103Z,54.3
2018-04-08T07:33:51.502Z,54.21
2018-04-08T07:34:31.899Z,54.61
2018-04-08T07:35:12.326Z,54.61
2018-04-08T07:35:52.739Z,54.61
2018-04-08T07:36:33.184Z,54.61
2018-04-08T07:37:13.575Z,54.42
2018-04-08T07:37:54.000Z,54.9
2018-04-08T07:38:34.418Z,54.8
2018-04-08T07:40:49.559Z,54.83
2018-04-08T07:41:28.097Z,54.9
2018-04-08T07:42:08.525Z,54.83
2018-04-08T07:42:48.882Z,54.83
2018-04-08T07:44:40.679Z,54.55
2018-04-08T07:45:19.797Z,54.83
2018-04-08T07:46:00.210Z,53.87
2018-04-08T07:46:40.615Z,54.74
2018-04-08T07:47:21.010Z,53.87
2018-04-08T07:48:02.159Z,54.35
2018-04-08T07:48:42.391Z,53.39
2018-04-08T07:49:22.904Z,53.49
2018-04-08T07:50:03.193Z,53.3
2018-04-08T07:50:43.677Z,53.58
2018-04-08T07:51:23.988Z,53.49
2018-04-08T07:52:04.400Z,53.11
2018-04-08T07:52:44.891Z,53.2
2018-04-08T07:53:25.221Z,53.2
2018-04-08T07:54:05.792Z,53.11
2018-04-08T07:54:46.077Z,52.72
2018-04-08T07:55:26.481Z,52.34
2018-04-08T07:56:06.864Z,51.95
2018-04-08T07:56:47.263Z,51.4
2018-04-08T07:57:27.693Z,51.5
2018-04-08T07:58:08.125Z,51.59
2018-04-08T07:58:48.530Z,51.31
2018-04-08T07:59:28.978Z,51.02
2018-04-08T08:00:09.394Z,50.73
2018-04-08T08:00:49.823Z,51.21
2018-04-08T08:01:30.210Z,50.82
2018-04-08T08:02:10.599Z,51.21
2018-04-08T08:02:51.010Z,51.31
2018-04-08T08:03:32.467Z,51.79
2018-04-08T08:04:13.025Z,51.5
2018-04-08T08:04:53.461Z,51.31
2018-04-08T08:05:33.881Z,51.79
2018-04-08T08:06:14.300Z,51.59
2018-04-08T08:06:54.701Z,51.5
2018-04-08T08:07:35.366Z,52.08
2018-04-08T08:08:15.901Z,52.46
2018-04-08T08:08:56.288Z,52.36
2018-04-08T08:09:36.730Z,52.75
2018-04-08T08:10:17.117Z,52.75
2018-04-08T08:10:57.526Z,53.32
2018-04-08T08:11:37.961Z,53.32
2018-04-08T08:12:18.395Z,52.08
2018-04-08T08:12:58.820Z,52.17
2018-04-08T08:13:39.219Z,52.26
2018-04-08T08:24:18.992Z,47.22
2018-04-08T08:25:00.056Z,46.86
2018-04-08T08:25:40.037Z,45.97
2018-04-08T08:26:20.450Z,46.38
2018-04-08T08:27:01.618Z,45.42
2018-04-08T08:27:41.964Z,45.51
2018-04-08T08:28:22.093Z,44.67
2018-04-08T08:29:02.504Z,44.48
2018-04-08T08:29:42.916Z,44.38
2018-04-08T08:30:23.342Z,44.31
2018-04-08T08:31:03.760Z,44.21
2018-04-08T08:31:44.177Z,43.82
2018-04-08T08:32:24.610Z,43.46
2018-04-08T08:33:05.011Z,43.65
2018-04-08T08:33:45.489Z,43.17
2018-04-08T08:34:25.854Z,43.27
2018-04-08T08:35:06.250Z,43.19
2018-04-08T08:35:46.719Z,42.8
2018-04-08T08:36:27.137Z,42.03
2018-04-08T08:37:07.546Z,41.86
2018-04-08T08:37:47.959Z,41.86
2018-04-08T08:38:28.578Z,41.6
2018-04-08T08:39:08.964Z,41.3
2018-04-08T08:39:49.414Z,41.02
2018-04-08T08:40:29.822Z,41.4
2018-04-08T08:41:10.276Z,40.92
2018-04-08T08:41:50.699Z,40.72
2018-04-08T08:42:31.103Z,40.34
2018-04-08T08:43:11.571Z,40.44
2018-04-08T08:43:51.951Z,40.75
2018-04-08T08:44:32.349Z,40.26
2018-04-08T08:45:12.754Z,39.59
2018-04-08T08:45:53.177Z,38.54
2018-04-08T08:46:33.592Z,38.45
2018-04-08T08:47:14.082Z,37.87
2018-04-08T08:47:54.415Z,37.3
2018-04-08T08:48:34.936Z,37.3
2018-04-08T08:49:15.319Z,37.04
2018-04-08T08:49:55.824Z,37.04
2018-04-08T08:50:36.145Z,36.55
2018-04-08T08:51:16.614Z,36.18
2018-04-08T08:51:57.027Z,35.5
2018-04-08T08:52:37.457Z,34.75
2018-04-08T08:53:17.902Z,34.25
2018-04-08T08:53:58.300Z,34.27
2018-04-08T08:54:38.735Z,33.59
2018-04-08T08:55:19.155Z,33.59
2018-04-08T08:55:59.731Z,33.67
2018-04-08T08:56:40.124Z,33.86
2018-04-08T08:57:20.550Z,34.15
2018-04-08T08:58:00.963Z,34.52
2018-04-08T08:58:41.390Z,35.1
2018-04-08T08:59:21.736Z,35.58
2018-04-08T09:00:02.158Z,35.58
2018-04-08T09:00:42.600Z,34.91
2018-04-08T09:01:23.038Z,34.42
2018-04-08T09:02:03.426Z,34.52
2018-04-08T09:02:44.165Z,34.34
2018-04-08T09:03:24.529Z,34.13
2018-04-08T09:04:05.558Z,34.42
2018-04-08T09:04:45.262Z,34.04
2018-04-08T09:06:38.756Z,34.15
2018-04-08T09:07:18.161Z,33.86
2018-04-08T09:07:58.575Z,33.37
2018-04-08T09:08:39.011Z,33.28
2018-04-08T09:09:19.453Z,32.99
2018-04-08T09:09:59.876Z,32.97
2018-04-08T09:10:40.318Z,33.36
2018-04-08T09:11:20.818Z,34.04
2018-04-08T09:12:01.185Z,34.13
2018-04-08T09:12:41.613Z,33.36
2018-04-08T09:13:22.005Z,33.09
2018-04-08T09:14:02.475Z,31.73
2018-04-08T09:14:42.840Z,32.12
2018-04-08T09:15:23.454Z,32.23
2018-04-08T09:16:03.643Z,32.14
2018-04-08T09:16:44.052Z,31.56
2018-04-08T09:17:24.501Z,31.94
2018-04-08T09:18:04.882Z,31.74
2018-04-08T09:18:45.354Z,32.12
2018-04-08T09:19:25.734Z,32.6
2018-04-08T09:20:06.138Z,33.18
2018-04-08T09:20:47.212Z,33.09
2018-04-08T09:21:27.629Z,32.6
2018-04-08T09:22:08.032Z,32.62
2018-04-08T09:22:48.451Z,33.01
2018-04-08T09:23:28.870Z,31.47
2018-04-08T09:24:09.497Z,31.09
2018-04-08T09:24:49.814Z,30.41
2018-04-08T09:25:30.220Z,30.02
2018-04-08T09:26:10.626Z,30.88
2018-04-08T09:26:51.050Z,31.07
2018-04-08T09:27:31.507Z,31.46
2018-04-08T09:28:11.930Z,31.36
2018-04-08T09:28:52.303Z,31.74
2018-04-08T09:29:32.746Z,31.56
2018-04-08T09:30:13.157Z,30.89
2018-04-08T09:30:53.604Z,29.84
2018-04-08T09:31:33.989Z,29.16
2018-04-08T09:32:14.455Z,28.87
2018-04-08T09:32:55.173Z,29.16
2018-04-08T09:33:35.621Z,29.55
2018-04-08T09:34:16.083Z,30.04
2018-04-08T09:34:56.441Z,30.23
2018-04-08T09:35:36.867Z,30.04
2018-04-08T09:36:17.331Z,29.17
2018-04-08T09:36:57.718Z,28.59
2018-04-08T09:37:38.074Z,28.4
2018-04-08T09:39:31.431Z,28.7
2018-04-08T09:40:10.666Z,28.89
2018-04-08T09:40:51.000Z,28.89
2018-04-08T09:41:31.520Z,28.9
2018-04-08T09:44:35.885Z,29.11
2018-04-08T09:45:16.335Z,29.3
2018-04-08T09:45:56.727Z,28.91
2018-04-08T09:46:37.119Z,29.01
2018-04-08T09:47:17.549Z,27.86
2018-04-08T09:47:58.004Z,27.86
2018-04-08T09:48:38.457Z,27.68
2018-04-08T09:49:18.802Z,27.11
2018-04-08T09:49:59.195Z,26.72
2018-04-08T09:50:39.612Z,27.11
2018-04-08T09:52:30.137Z,27.42
2018-04-08T09:54:25.812Z,26.65
2018-04-08T09:55:11.245Z,26.07
2018-04-08T09:55:51.665Z,26.26
2018-04-08T09:57:54.023Z,25.48
2018-04-08T09:58:39.483Z,25.19
2018-04-08T09:59:19.217Z,25.48
2018-04-08T09:59:59.636Z,25.3
2018-04-08T10:00:40.080Z,24.72
2018-04-08T10:01:20.549Z,23.74
2018-04-08T10:02:00.986Z,23.55
2018-04-08T10:02:41.375Z,23.55
2018-04-08T10:03:21.802Z,23.55
2018-04-08T10:41:54.934Z,19.83
2018-04-08T10:42:34.596Z,19.05
2018-04-08T10:43:15.030Z,19.24
2018-04-08T10:43:55.468Z,18.95
2018-04-08T10:44:35.903Z,18.95
2018-04-08T10:45:16.328Z,19.05
2018-04-08T10:45:56.765Z,19.44
2018-04-08T10:46:37.196Z,19.34
2018-04-08T10:47:17.623Z,19.15
2018-04-08T10:47:58.054Z,19.64
2018-04-08T10:48:38.467Z,20.12
2018-04-08T10:49:18.851Z,20.22
2018-04-08T10:49:59.290Z,19.83
2018-04-08T10:50:39.919Z,19.34
2018-04-08T10:51:20.141Z,19.53
2018-04-08T10:52:00.564Z,18.85
2018-04-08T10:52:41.156Z,19.15
2018-04-08T10:53:21.395Z,19.34
2018-04-08T10:54:01.790Z,18.56
2018-04-08T10:54:42.210Z,19.14
2018-04-08T10:55:22.637Z,19.43
2018-04-08T10:56:03.075Z,19.43
2018-04-08T10:56:43.513Z,19.71
2018-04-08T10:57:23.946Z,19.62
2018-04-08T10:58:04.391Z,19.23
2018-04-08T10:58:44.824Z,18.95
2018-04-08T10:59:25.327Z,19.04
2018-04-08T11:00:05.642Z,18.95
2018-04-08T11:00:46.076Z,18.55
2018-04-08T11:01:26.518Z,19.04
2018-04-08T11:02:06.970Z,19.24
2018-04-08T11:02:47.365Z,19.34
2018-04-08T11:03:27.780Z,18.37
2018-04-08T11:04:08.208Z,18.37
2018-04-08T11:04:48.708Z,18.46
2018-04-08T11:05:29.090Z,18.66